Skip Navigation Links Skip Navigation Links

Current Weather

Morris Muni - James R. Washburn Field, Morris, Ill.

For information only: do not use for flight planning or navigation.
Latest weather
Observation time Sunday, October 13, 2019 6:15 PM CDT
Local time Sunday, October 13, 2019 6:42 PM CDT
Flight conditions Visual Meteorological Conditions
Winds
Wind direction Northwest (320°)
Wind speed 7 mph
Visibility 10 mi.
Sky condition
Ceiling 6,000 ft. broken clouds
Cloud layer broken clouds 6,000 ft.
Temperature 50°F
Dewpoint 35°F
Altimeter 29.88 in.Hg
Derived measurements
Relative humidity 56%
Wind chill 47°F
Density altitude 138 ft.
Remarks
Fully automated report.
Automated weather observing station with precipitation discriminator.
METAR KC09 132315Z AUTO 32006KT 10SM BKN060 10/02 A2988 RMK AO2 T01000017

Settings

Location code

InnerDrive.Weather 4.0.6770.0 Release CLR 4.0.30319.42000
Copyright ©2018 Inner Drive Technology. All rights reserved. Portions Copyright ©1986-2018 David Braverman.

Find weather

Site navigation


Skip Navigation Links

Place info

Page info

PayPal - The safer, easier way to pay online!

Return home.

Copyright ©2019 Inner Drive Technology. Purveyors of fine, hand-crafted computer software. Page printed 2019-10-13T23:42:21 UTC.